Time;durP1;ratioP1;P1;durP2;ratioP2;P2;SDS_P1;SDS_P2;PMS_P1;PMS_P2;Temp;Humidity;BMP_temperature;BMP_pressure;BME280_temperature;BME280_humidity;BME280_pressure;Samples;Min_cycle;Max_cycle;Signal;HPM_P1;HPM_P2
2023/06/25 08:52:33;;;;;;;;;10.67;10.67;;;;;23.70;54.13;101352.28;5056293;27;45489;-79
2023/06/25 08:54:59;;;;;;;;;13.67;12.67;;;;;23.87;54.30;101344.31;5038509;28;45597;-72
2023/06/25 08:57:25;;;;;;;;;15.00;12.67;;;;;24.06;54.62;101335.13;5047585;28;45410;-72
2023/06/25 08:59:50;;;;;;;;;12.00;12.00;;;;;24.26;54.56;101334.97;5046017;28;45496;-73
2023/06/25 09:02:15;;;;;;;;;14.33;13.00;;;;;24.39;54.27;101316.41;5043151;28;45579;-73
2023/06/25 09:04:43;;;;;;;;;13.67;12.67;;;;;24.66;54.61;101336.25;5039196;28;45742;-78
2023/06/25 09:07:11;;;;;;;;;18.00;16.67;;;;;24.86;54.25;101330.59;5035778;28;45508;-76
2023/06/25 09:09:36;;;;;;;;;12.33;12.33;;;;;25.04;53.77;101329.63;5030831;28;45551;-76
2023/06/25 09:12:02;;;;;;;;;18.67;15.33;;;;;25.18;53.57;101328.97;5039125;28;45677;-77
2023/06/25 09:14:29;;;;;;;;;15.00;13.00;;;;;25.35;52.90;101331.75;5043677;28;45605;-75
2023/06/25 09:16:56;;;;;;;;;16.00;13.33;;;;;25.45;51.91;101328.88;5041452;28;45982;-76
2023/06/25 09:19:22;;;;;;;;;13.67;13.67;;;;;25.58;52.10;101326.53;5043298;28;45456;-73
2023/06/25 09:21:48;;;;;;;;;12.00;12.00;;;;;25.69;51.39;101324.50;5036410;28;45553;-76
2023/06/25 09:24:15;;;;;;;;;12.00;12.00;;;;;25.79;51.17;101333.38;5046370;28;45624;-75
2023/06/25 09:26:53;;;;;;;;;14.00;13.33;;;;;25.89;50.72;101323.16;5041547;28;46733;-76
2023/06/25 09:29:21;;;;;;;;;16.00;15.00;;;;;25.97;51.27;101322.31;5045067;28;45740;-77
2023/06/25 09:31:48;;;;;;;;;13.33;13.00;;;;;26.05;50.40;101318.72;5040660;28;45566;-75
2023/06/25 09:34:15;;;;;;;;;14.67;14.00;;;;;26.11;50.84;101312.59;5044752;28;45464;-75
2023/06/25 09:36:40;;;;;;;;;8.67;8.33;;;;;26.18;50.53;101312.75;5044156;27;45773;-75
2023/06/25 09:39:10;;;;;;;;;15.00;14.33;;;;;26.22;50.11;101311.38;5042919;28;45650;-75
2023/06/25 09:41:43;;;;;;;;;13.67;13.67;;;;;26.28;50.47;101312.63;5039719;28;46374;-75
2023/06/25 09:44:10;;;;;;;;;13.67;13.67;;;;;26.33;49.64;101312.94;5042695;28;45550;-74
2023/06/25 09:46:37;;;;;;;;;14.00;12.33;;;;;26.38;49.48;101309.69;5036970;28;45432;-74
2023/06/25 09:49:03;;;;;;;;;13.00;13.00;;;;;26.41;49.44;101298.47;5044514;28;45389;-75
2023/06/25 09:51:53;;;;;;;;;14.67;14.33;;;;;26.46;49.56;101295.19;5055693;27;47099;-73
2023/06/25 09:54:22;;;;;;;;;16.00;16.00;;;;;26.49;50.01;101292.13;5067408;28;45821;-74
2023/06/25 09:56:49;;;;;;;;;13.67;13.00;;;;;26.52;49.67;101297.25;5059348;27;45363;-74
2023/06/25 09:59:15;;;;;;;;;15.67;13.33;;;;;26.55;49.79;101297.72;5066384;28;45416;-74
2023/06/25 10:01:41;;;;;;;;;18.00;14.00;;;;;26.57;49.37;101292.94;5066790;27;46338;-75
2023/06/25 10:04:07;;;;;;;;;16.00;16.00;;;;;26.60;49.60;101291.75;5054000;28;45523;-75
2023/06/25 10:06:34;;;;;;;;;12.67;12.67;;;;;26.62;49.36;101286.97;5051404;28;45654;-75
2023/06/25 10:09:04;;;;;;;;;14.67;13.00;;;;;26.65;49.70;101277.63;5051023;28;45559;-75
2023/06/25 10:11:29;;;;;;;;;13.67;12.67;;;;;26.66;49.28;101279.31;5052084;28;45506;-74
2023/06/25 10:13:56;;;;;;;;;11.00;11.00;;;;;26.69;48.68;101274.34;5052605;28;45714;-73
2023/06/25 10:16:23;;;;;;;;;13.00;13.00;;;;;26.71;48.75;101271.44;5047003;28;45935;-74
2023/06/25 10:18:54;;;;;;;;;13.33;11.67;;;;;26.73;49.22;101277.56;5049724;28;45555;-73
2023/06/25 10:21:22;;;;;;;;;12.00;12.00;;;;;26.75;48.96;101271.94;5051974;28;45440;-74
2023/06/25 10:23:56;;;;;;;;;14.67;13.00;;;;;26.77;48.85;101270.72;5039333;28;45781;-74
2023/06/25 10:26:25;;;;;;;;;12.00;12.00;;;;;26.79;48.64;101257.81;5041172;28;45592;-74
2023/06/25 10:28:51;;;;;;;;;17.00;13.67;;;;;26.79;48.83;101260.53;5039017;28;45607;-74
2023/06/25 10:31:16;;;;;;;;;15.67;14.33;;;;;26.82;48.87;101270.22;5041107;28;45986;-74
2023/06/25 10:33:42;;;;;;;;;13.67;13.67;;;;;26.85;48.57;101272.56;5049751;28;45743;-75
2023/06/25 10:36:08;;;;;;;;;13.00;12.67;;;;;26.87;48.13;101269.66;5044329;28;45741;-75
2023/06/25 10:38:34;;;;;;;;;14.67;14.67;;;;;26.88;48.36;101274.94;5053387;28;45947;-75
2023/06/25 10:40:59;;;;;;;;;14.33;14.33;;;;;26.87;48.07;101275.97;5046758;28;46329;-75
2023/06/25 10:43:25;;;;;;;;;12.67;11.00;;;;;26.90;47.77;101274.75;5022916;28;45795;-76
2023/06/25 10:45:57;;;;;;;;;14.00;13.00;;;;;26.90;48.31;101270.19;5043075;28;56718;-76
2023/06/25 10:48:23;;;;;;;;;11.00;10.33;;;;;26.91;47.93;101276.47;5043061;28;45659;-76
2023/06/25 10:50:51;;;;;;;;;12.33;10.67;;;;;26.92;48.38;101268.13;5052994;28;46010;-76
2023/06/25 10:53:19;;;;;;;;;13.33;13.33;;;;;26.92;47.67;101261.81;5049614;28;46495;-77
2023/06/25 10:55:47;;;;;;;;;15.00;12.00;;;;;26.92;47.53;101257.22;5051940;28;45439;-76
2023/06/25 10:58:17;;;;;;;;;15.67;13.00;;;;;26.93;48.01;101250.78;5052185;28;46363;-76
2023/06/25 11:00:43;;;;;;;;;13.67;13.33;;;;;26.96;47.60;101255.00;5044101;28;47213;-76
2023/06/25 11:03:09;;;;;;;;;13.67;13.67;;;;;26.98;47.70;101254.84;5052103;28;45655;-76
2023/06/25 11:05:38;;;;;;;;;14.33;14.00;;;;;26.96;47.99;101238.66;5055391;28;45461;-77
2023/06/25 11:08:10;;;;;;;;;12.00;11.67;;;;;26.99;47.53;101248.34;5040467;28;45345;-76
2023/06/25 11:10:38;;;;;;;;;11.67;10.33;;;;;27.00;47.58;101250.91;5054194;28;45550;-76
2023/06/25 11:13:07;;;;;;;;;16.33;13.67;;;;;27.01;48.14;101252.59;5052810;28;45670;-78
2023/06/25 11:15:33;;;;;;;;;14.33;13.33;;;;;26.95;47.69;101237.84;5049605;28;45623;-75
2023/06/25 11:18:00;;;;;;;;;15.00;13.33;;;;;27.04;48.17;101240.47;5051506;28;45482;-75
2023/06/25 11:20:27;;;;;;;;;16.00;14.00;;;;;27.02;47.85;101232.50;5052889;28;45380;-72
2023/06/25 11:22:55;;;;;;;;;13.67;12.33;;;;;27.05;48.29;101234.03;5041767;28;45404;-72
2023/06/25 11:25:21;;;;;;;;;14.67;13.67;;;;;27.05;48.17;101228.59;5043036;28;45519;-72
2023/06/25 11:27:48;;;;;;;;;13.67;13.67;;;;;27.06;48.22;101225.66;5052905;28;45392;-73
2023/06/25 11:30:14;;;;;;;;;15.67;12.33;;;;;27.07;47.75;101229.25;5050061;28;47055;-73
2023/06/25 11:32:40;;;;;;;;;13.00;12.00;;;;;27.08;47.86;101229.06;5046064;28;45530;-74
2023/06/25 11:35:10;;;;;;;;;13.33;13.33;;;;;27.08;47.76;101222.75;5051098;28;45581;-74
2023/06/25 11:37:49;;;;;;;;;12.00;12.00;;;;;27.09;48.26;101221.72;5045842;28;45719;-73
2023/06/25 11:40:25;;;;;;;;;15.00;14.00;;;;;27.10;48.14;101221.53;5049396;28;46375;-74
2023/06/25 11:42:51;;;;;;;;;11.33;11.33;;;;;27.12;47.59;101223.22;5046680;28;45778;-75
2023/06/25 11:45:18;;;;;;;;;11.67;11.67;;;;;27.13;47.79;101217.59;5048606;28;45467;-75
2023/06/25 11:47:50;;;;;;;;;15.00;13.33;;;;;27.12;48.19;101215.91;5037278;28;46392;-74
2023/06/25 11:50:18;;;;;;;;;12.67;12.67;;;;;27.14;48.12;101210.28;5038087;28;45496;-74
2023/06/25 11:52:44;;;;;;;;;14.33;13.33;;;;;27.14;48.03;101207.56;5040771;28;45435;-75
2023/06/25 11:55:11;;;;;;;;;10.00;10.00;;;;;27.15;48.10;101203.81;5046820;28;45463;-75
2023/06/25 11:57:36;;;;;;;;;16.33;14.00;;;;;27.15;47.96;101201.94;5042611;28;45624;-75
2023/06/25 12:00:03;;;;;;;;;11.67;11.67;;;;;27.16;47.48;101202.78;5048860;28;45994;-74
2023/06/25 12:02:28;;;;;;;;;14.00;11.00;;;;;27.16;47.84;101203.63;5043491;28;45491;-75
2023/06/25 12:04:54;;;;;;;;;12.33;12.33;;;;;27.17;47.65;101201.72;5044778;28;45318;-74
2023/06/25 12:07:19;;;;;;;;;16.33;14.33;;;;;27.18;47.36;101201.56;5046538;28;45500;-74
2023/06/25 12:09:44;;;;;;;;;11.00;11.00;;;;;27.18;47.09;101195.28;5042104;28;45841;-71
2023/06/25 12:12:10;;;;;;;;;14.00;14.00;;;;;27.18;47.65;101203.47;5049237;28;57391;-71
2023/06/25 12:14:35;;;;;;;;;11.33;11.00;;;;;27.19;47.60;101202.41;5030784;28;45431;-71
2023/06/25 12:17:01;;;;;;;;;13.33;13.00;;;;;27.18;47.75;101190.66;5042542;28;45382;-71
2023/06/25 12:19:26;;;;;;;;;12.00;10.67;;;;;27.19;47.30;101196.97;5041745;28;47175;-72
2023/06/25 12:21:51;;;;;;;;;15.67;14.00;;;;;27.19;47.22;101194.25;5048048;28;50573;-71
2023/06/25 12:24:16;;;;;;;;;14.67;14.00;;;;;27.19;47.57;101186.94;5034177;28;45364;-71
2023/06/25 12:26:42;;;;;;;;;17.33;15.67;;;;;27.20;48.30;101179.59;5042723;28;45625;-71
2023/06/25 12:29:07;;;;;;;;;19.33;16.33;;;;;27.09;47.56;101168.09;5045664;28;45559;-72
2023/06/25 12:31:32;;;;;;;;;16.00;13.00;;;;;27.21;48.37;101184.00;5051055;28;45357;-72
2023/06/25 12:33:58;;;;;;;;;17.67;17.67;;;;;27.22;48.35;101181.09;5043958;28;45477;-71
2023/06/25 12:36:23;;;;;;;;;14.67;14.33;;;;;27.22;48.49;101186.53;5044377;28;45513;-72
2023/06/25 12:38:48;;;;;;;;;16.33;14.67;;;;;27.23;48.58;101181.97;5032502;28;68180;-72
2023/06/25 12:41:14;;;;;;;;;19.67;16.00;;;;;27.24;48.16;101186.38;5047101;28;61070;-72
2023/06/25 12:43:39;;;;;;;;;17.00;15.33;;;;;27.22;48.04;101177.53;5052339;28;45676;-72
2023/06/25 12:46:05;;;;;;;;;15.00;15.00;;;;;27.25;48.10;101173.59;5046295;28;45645;-72
2023/06/25 12:48:31;;;;;;;;;16.33;16.00;;;;;27.25;48.53;101174.44;5037385;28;46986;-72
2023/06/25 12:50:56;;;;;;;;;16.00;15.67;;;;;27.23;48.66;101169.16;5043063;28;45532;-72
2023/06/25 12:53:21;;;;;;;;;16.33;14.33;;;;;27.26;48.30;101167.94;5045378;28;51240;-72
2023/06/25 12:55:47;;;;;;;;;13.33;11.67;;;;;27.27;48.43;101168.81;5042392;28;45527;-72
2023/06/25 12:58:12;;;;;;;;;18.00;15.33;;;;;27.26;48.25;101167.13;5043410;28;45908;-72
2023/06/25 13:00:37;;;;;;;;;18.00;15.00;;;;;27.28;48.99;101170.50;5050007;28;45536;-72
2023/06/25 13:03:03;;;;;;;;;17.33;15.33;;;;;27.26;48.53;101158.94;5042238;28;45701;-72
2023/06/25 13:05:29;;;;;;;;;18.33;15.00;;;;;27.28;48.75;101162.31;5045585;28;45325;-72
2023/06/25 13:07:54;;;;;;;;;15.33;13.67;;;;;27.29;49.09;101169.44;5048254;28;47153;-72
2023/06/25 13:10:19;;;;;;;;;21.00;15.33;;;;;27.26;48.62;101159.75;5046580;28;58695;-72
2023/06/25 13:12:45;;;;;;;;;15.67;14.00;;;;;27.31;49.05;101161.97;5046936;28;45954;-73
2023/06/25 13:15:10;;;;;;;;;17.67;16.00;;;;;27.30;48.80;101163.00;5047849;28;45388;-72
2023/06/25 13:17:35;;;;;;;;;19.33;15.00;;;;;27.31;49.15;101157.38;5039145;28;45757;-73
2023/06/25 13:20:01;;;;;;;;;12.33;11.67;;;;;27.32;49.10;101158.19;5039331;28;45552;-73
2023/06/25 13:22:26;;;;;;;;;15.33;14.00;;;;;27.32;48.93;101156.31;5046523;28;45611;-73
2023/06/25 13:24:51;;;;;;;;;16.00;13.33;;;;;27.33;48.92;101159.88;5039600;28;52258;-72
2023/06/25 13:27:17;;;;;;;;;17.00;13.33;;;;;27.32;48.70;101145.44;5050581;28;46564;-73
2023/06/25 13:29:42;;;;;;;;;17.67;14.00;;;;;27.31;49.15;101137.44;5048632;28;45408;-74
2023/06/25 13:32:08;;;;;;;;;14.00;14.00;;;;;27.33;48.79;101140.81;5037070;28;45634;-74
2023/06/25 13:34:34;;;;;;;;;14.33;14.33;;;;;27.34;49.39;101137.91;5043674;28;45527;-73
2023/06/25 13:37:02;;;;;;;;;15.33;14.00;;;;;27.34;49.23;101137.91;5047031;28;45686;-74
2023/06/25 13:39:30;;;;;;;;;16.00;13.00;;;;;27.35;48.98;101136.88;5054225;28;45574;-73
2023/06/25 13:41:56;;;;;;;;;13.67;12.67;;;;;27.36;48.88;101135.84;5048849;28;45610;-72
2023/06/25 13:44:21;;;;;;;;;12.33;11.33;;;;;27.37;49.71;101133.97;5050503;28;46112;-72
2023/06/25 13:46:46;;;;;;;;;18.33;13.33;;;;;27.37;49.69;101136.69;5044957;28;45560;-72
2023/06/25 13:49:11;;;;;;;;;18.33;14.67;;;;;27.38;49.45;101130.19;5028984;28;48228;-72
2023/06/25 13:51:37;;;;;;;;;12.67;10.33;;;;;27.39;49.38;101136.50;5042242;28;45643;-72
2023/06/25 13:54:02;;;;;;;;;14.00;12.33;;;;;27.39;49.28;101131.91;5048211;28;45452;-72
2023/06/25 13:56:28;;;;;;;;;18.67;15.00;;;;;27.40;49.00;101130.88;5035654;28;45612;-72
2023/06/25 13:58:54;;;;;;;;;15.00;13.00;;;;;27.42;49.18;101120.63;5050875;28;45484;-72
2023/06/25 14:01:19;;;;;;;;;14.33;12.67;;;;;27.43;49.19;101135.94;5048418;28;47766;-73
2023/06/25 14:03:44;;;;;;;;;17.33;15.67;;;;;27.44;49.20;101131.34;5051280;28;45777;-72
2023/06/25 14:06:10;;;;;;;;;16.00;14.00;;;;;27.43;49.07;101110.56;5048942;28;45716;-72
2023/06/25 14:08:35;;;;;;;;;18.00;17.00;;;;;27.43;49.52;101124.19;5030109;28;45683;-73
2023/06/25 14:11:00;;;;;;;;;18.67;13.00;;;;;27.44;49.20;101110.41;5040161;28;45523;-73
2023/06/25 14:13:26;;;;;;;;;16.33;14.00;;;;;27.44;48.64;101109.53;5043076;28;47216;-72
2023/06/25 14:15:52;;;;;;;;;18.00;16.33;;;;;27.45;48.84;101111.22;5035538;28;46486;-72
2023/06/25 14:18:18;;;;;;;;;16.67;14.67;;;;;27.46;49.42;101105.59;5039264;28;45499;-72
2023/06/25 14:20:43;;;;;;;;;18.00;17.00;;;;;27.46;49.44;101102.03;5040702;28;45714;-72
2023/06/25 14:23:08;;;;;;;;;16.33;16.00;;;;;27.47;49.30;101098.28;5045988;28;45684;-72
2023/06/25 14:25:34;;;;;;;;;18.33;16.67;;;;;27.48;49.14;101103.53;5051889;28;45950;-72
2023/06/25 14:28:00;;;;;;;;;16.33;15.33;;;;;27.48;48.92;101095.38;5052209;28;45541;-73
2023/06/25 14:30:25;;;;;;;;;16.00;13.33;;;;;27.51;48.88;101104.19;5058485;28;46035;-72
2023/06/25 14:32:51;;;;;;;;;19.00;14.67;;;;;27.50;49.07;101108.78;5046849;28;45436;-73
2023/06/25 14:35:16;;;;;;;;;15.67;14.67;;;;;27.51;49.20;101104.19;5024282;28;47399;-72
2023/06/25 14:37:41;;;;;;;;;16.00;16.00;;;;;27.52;49.28;101097.69;5034285;28;50949;-73
2023/06/25 14:40:07;;;;;;;;;17.00;15.00;;;;;27.51;49.37;101094.13;5053045;28;45400;-72
2023/06/25 14:42:33;;;;;;;;;23.00;16.33;;;;;27.53;49.28;101102.09;5052323;28;45603;-73
2023/06/25 14:44:59;;;;;;;;;14.00;14.00;;;;;27.51;49.29;101101.47;5043465;28;45488;-73
2023/06/25 14:47:25;;;;;;;;;20.33;16.33;;;;;27.54;49.23;101095.66;5050200;28;45492;-72
2023/06/25 14:49:51;;;;;;;;;14.00;13.67;;;;;27.54;49.75;101098.38;5051531;28;45651;-73
2023/06/25 14:52:16;;;;;;;;;19.00;18.67;;;;;27.55;49.20;101100.06;5042590;28;45555;-72
2023/06/25 14:54:41;;;;;;;;;14.67;13.67;;;;;27.52;49.42;101101.28;5044928;28;45486;-73
2023/06/25 14:57:07;;;;;;;;;15.67;14.67;;;;;27.55;49.19;101087.25;5043444;28;45817;-73
2023/06/25 14:59:32;;;;;;;;;14.67;13.00;;;;;27.56;48.60;101088.09;5043405;28;50400;-73
2023/06/25 15:01:57;;;;;;;;;15.67;15.67;;;;;27.56;49.42;101088.09;5047212;28;45482;-73
2023/06/25 15:04:22;;;;;;;;;16.33;14.67;;;;;27.55;49.16;101081.81;5048711;28;46102;-73
2023/06/25 15:06:48;;;;;;;;;15.00;13.33;;;;;27.57;49.05;101092.53;5045022;28;45757;-74
2023/06/25 15:09:13;;;;;;;;;15.67;13.00;;;;;27.59;48.60;101082.28;5051561;28;45483;-71
2023/06/25 15:11:39;;;;;;;;;18.00;16.33;;;;;27.60;49.14;101086.75;5046797;28;45622;-72
2023/06/25 15:14:04;;;;;;;;;13.00;12.00;;;;;27.60;49.30;101094.91;5045988;28;45460;-71
2023/06/25 15:16:29;;;;;;;;;14.33;12.00;;;;;27.61;48.35;101088.44;5047502;28;45914;-72
2023/06/25 15:18:55;;;;;;;;;14.67;12.67;;;;;27.62;48.58;101087.38;5039401;28;45676;-72
2023/06/25 15:21:20;;;;;;;;;13.33;12.67;;;;;27.62;49.40;101090.09;5044253;28;45634;-72
2023/06/25 15:23:46;;;;;;;;;18.33;14.00;;;;;27.64;49.35;101082.59;5045038;28;47111;-72
2023/06/25 15:26:12;;;;;;;;;15.67;15.67;;;;;27.59;49.13;101076.84;5048054;28;45559;-72
2023/06/25 15:28:37;;;;;;;;;18.67;17.33;;;;;27.62;48.95;101079.22;5051016;28;45538;-72
2023/06/25 15:31:03;;;;;;;;;16.00;12.67;;;;;27.64;48.94;101070.84;5043386;28;45634;-70
2023/06/25 15:33:28;;;;;;;;;14.67;14.67;;;;;27.64;49.24;101070.84;5042469;28;47013;-70
2023/06/25 15:35:53;;;;;;;;;17.00;13.33;;;;;27.64;48.91;101063.53;5042227;28;55508;-70
2023/06/25 15:38:19;;;;;;;;;16.67;16.00;;;;;27.65;49.39;101067.06;5049702;28;55799;-70
2023/06/25 15:40:44;;;;;;;;;17.67;13.67;;;;;27.65;49.62;101067.94;5039795;28;45458;-71
2023/06/25 15:43:09;;;;;;;;;15.33;14.33;;;;;27.66;48.99;101063.34;5050085;28;45939;-71
2023/06/25 15:45:38;;;;;;;;;14.33;14.33;;;;;27.65;49.25;101061.63;5051917;28;45375;-70
2023/06/25 15:48:04;;;;;;;;;20.33;16.00;;;;;27.65;48.97;101059.75;5048415;28;45741;-71
2023/06/25 15:50:30;;;;;;;;;16.67;12.67;;;;;27.66;48.90;101058.72;5052192;28;45484;-71
2023/06/25 15:52:55;;;;;;;;;19.00;16.00;;;;;27.66;49.08;101049.72;5041358;28;46577;-69
2023/06/25 15:55:23;;;;;;;;;17.00;16.67;;;;;27.66;49.11;101047.81;5047954;28;45592;-70
2023/06/25 15:57:48;;;;;;;;;22.00;19.33;;;;;27.65;48.88;101050.72;5049499;28;45664;-71
2023/06/25 16:00:14;;;;;;;;;30.33;22.67;;;;;27.67;49.25;101054.94;5038813;28;45568;-71
2023/06/25 16:02:39;;;;;;;;;21.33;17.33;;;;;27.67;49.15;101054.94;5049360;28;45483;-70
2023/06/25 16:05:04;;;;;;;;;18.33;15.00;;;;;27.68;49.33;101047.63;5035017;28;48944;-70
2023/06/25 16:07:30;;;;;;;;;16.67;16.67;;;;;27.68;49.08;101048.47;5033169;28;57015;-70
2023/06/25 16:09:55;;;;;;;;;17.33;15.67;;;;;27.70;48.94;101040.09;5043749;28;45395;-70
2023/06/25 16:12:21;;;;;;;;;15.33;13.67;;;;;27.69;48.96;101038.41;5042950;28;56288;-70
2023/06/25 16:14:47;;;;;;;;;15.33;11.67;;;;;27.71;49.02;101044.53;5052301;28;45838;-70
2023/06/25 16:17:12;;;;;;;;;14.00;12.00;;;;;27.71;49.43;101036.34;5047514;28;45432;-71
2023/06/25 16:19:39;;;;;;;;;15.00;14.67;;;;;27.70;49.11;101040.09;5046804;28;45512;-71
2023/06/25 16:22:05;;;;;;;;;17.00;14.00;;;;;27.70;49.53;101037.34;5043973;28;47033;-71
2023/06/25 16:24:30;;;;;;;;;15.00;13.00;;;;;27.71;49.10;101020.00;5050007;28;45655;-71
2023/06/25 16:26:55;;;;;;;;;16.00;13.33;;;;;27.71;49.43;101026.25;5047623;28;45502;-70
2023/06/25 16:29:21;;;;;;;;;15.67;14.67;;;;;27.70;49.20;101030.03;5045613;28;54788;-72
2023/06/25 16:31:46;;;;;;;;;15.33;13.33;;;;;27.71;49.49;101025.44;5051686;28;45424;-71
2023/06/25 16:34:11;;;;;;;;;13.00;13.00;;;;;27.73;48.92;101020.63;5052105;28;45434;-71
2023/06/25 16:36:36;;;;;;;;;15.67;14.67;;;;;27.73;49.22;101020.63;5050834;28;47443;-72
2023/06/25 16:39:02;;;;;;;;;13.67;13.67;;;;;27.72;49.16;101017.03;5035307;28;46508;-71
2023/06/25 16:41:27;;;;;;;;;14.67;14.33;;;;;27.73;49.61;101009.72;5042146;28;45637;-71
2023/06/25 16:43:52;;;;;;;;;13.67;13.67;;;;;27.74;49.69;101005.94;5050581;28;45365;-72
2023/06/25 16:46:18;;;;;;;;;16.00;15.00;;;;;27.73;48.93;101007.84;5049304;28;45459;-72
2023/06/25 16:48:43;;;;;;;;;15.00;13.33;;;;;27.75;48.88;101013.13;5034317;28;46150;-72
2023/06/25 16:51:08;;;;;;;;;12.33;12.33;;;;;27.73;49.11;101005.13;5038605;28;46040;-71
2023/06/25 16:53:34;;;;;;;;;12.33;12.33;;;;;27.74;48.86;100995.91;5031301;28;51325;-71
2023/06/25 16:55:59;;;;;;;;;16.00;16.00;;;;;27.74;49.57;101001.34;5039733;28;45544;-71
2023/06/25 16:58:24;;;;;;;;;17.67;15.00;;;;;27.75;49.28;100994.03;5041801;28;45493;-71
2023/06/25 17:00:50;;;;;;;;;14.33;14.33;;;;;27.75;49.46;100997.59;5038148;28;64132;-71
2023/06/25 17:03:15;;;;;;;;;14.33;12.00;;;;;27.75;49.68;100989.41;5038365;28;45488;-73
2023/06/25 17:05:42;;;;;;;;;15.00;14.67;;;;;27.77;49.11;100988.34;5038954;28;49668;-73
2023/06/25 17:08:07;;;;;;;;;15.67;15.67;;;;;27.77;49.17;100999.28;5041758;28;45702;-72
2023/06/25 17:10:34;;;;;;;;;13.67;13.67;;;;;27.76;49.31;100993.00;5038238;28;46779;-73
2023/06/25 17:12:59;;;;;;;;;12.67;12.67;;;;;27.75;48.89;100983.13;5042124;28;45540;-72
2023/06/25 17:15:24;;;;;;;;;15.67;13.00;;;;;27.77;48.84;100985.63;5044208;28;45542;-73
2023/06/25 17:17:50;;;;;;;;;16.00;15.00;;;;;27.78;49.01;100990.91;5043075;28;45475;-72
2023/06/25 17:20:15;;;;;;;;;15.67;13.67;;;;;27.78;49.42;100985.44;5037282;28;56708;-72
2023/06/25 17:22:40;;;;;;;;;13.67;12.00;;;;;27.79;49.46;100992.59;5042812;28;45773;-72
2023/06/25 17:25:06;;;;;;;;;10.00;8.33;;;;;27.78;49.10;100987.34;5044789;28;47647;-72
2023/06/25 17:27:31;;;;;;;;;11.67;11.67;;;;;27.78;49.79;100993.63;5039020;28;45808;-72
2023/06/25 17:29:56;;;;;;;;;18.00;13.00;;;;;27.77;48.99;100983.75;5040352;28;48781;-72
2023/06/25 17:32:22;;;;;;;;;13.00;11.00;;;;;27.78;49.46;100988.16;5046992;28;45690;-73
2023/06/25 17:34:47;;;;;;;;;15.00;14.00;;;;;27.79;49.65;100989.03;5046087;28;45534;-72
2023/06/25 17:37:13;;;;;;;;;13.67;12.67;;;;;27.79;49.10;100998.03;5039607;28;45721;-72
2023/06/25 17:39:38;;;;;;;;;18.00;14.33;;;;;27.80;49.79;101001.63;5044160;28;46906;-73
2023/06/25 17:42:04;;;;;;;;;14.00;13.00;;;;;27.79;49.85;100998.03;5046012;28;45832;-72
2023/06/25 17:44:29;;;;;;;;;13.67;13.00;;;;;27.80;49.72;100999.75;5045591;28;46135;-71
2023/06/25 17:46:54;;;;;;;;;15.00;13.00;;;;;27.79;49.26;100991.75;5045937;28;48527;-72
2023/06/25 17:49:19;;;;;;;;;15.00;12.33;;;;;27.81;48.86;101003.31;5045633;28;57718;-72
2023/06/25 17:51:45;;;;;;;;;11.67;11.67;;;;;27.81;49.23;100995.13;5047172;28;55847;-73
2023/06/25 17:54:11;;;;;;;;;13.33;13.00;;;;;27.81;49.17;100992.41;5038665;28;45620;-73
2023/06/25 17:56:36;;;;;;;;;11.00;9.67;;;;;27.82;49.09;100994.09;5041469;28;46525;-71
2023/06/25 17:59:01;;;;;;;;;11.00;11.00;;;;;27.80;49.09;100999.75;5044378;28;60767;-72
2023/06/25 18:01:28;;;;;;;;;18.00;13.33;;;;;27.82;49.85;101005.00;5042260;28;45612;-71
2023/06/25 18:03:53;;;;;;;;;11.33;11.33;;;;;27.82;49.31;100999.53;5043813;28;45522;-70
2023/06/25 18:06:19;;;;;;;;;9.33;9.33;;;;;27.82;49.38;101010.44;5043431;28;45572;-71
2023/06/25 18:08:44;;;;;;;;;14.00;12.00;;;;;27.83;49.51;101015.72;5042042;28;55365;-71
2023/06/25 18:11:20;;;;;;;;;12.33;12.00;;;;;27.80;49.50;101013.38;5038099;28;45802;-71
2023/06/25 18:13:47;;;;;;;;;9.00;8.33;;;;;27.83;49.19;101015.72;5054060;28;45750;-71
2023/06/25 18:16:13;;;;;;;;;14.00;11.00;;;;;27.84;49.34;101017.41;5035372;28;45647;-72
2023/06/25 18:18:43;;;;;;;;;14.67;11.67;;;;;27.83;49.00;101018.44;5042769;28;45659;-72
2023/06/25 18:21:08;;;;;;;;;11.33;11.33;;;;;27.82;49.29;101016.75;5042603;28;45528;-72
2023/06/25 18:23:34;;;;;;;;;12.67;12.67;;;;;27.83;49.25;101026.63;5043686;28;45620;-72
2023/06/25 18:26:01;;;;;;;;;11.33;11.33;;;;;27.84;49.18;101025.59;5045252;28;45573;-73
2023/06/25 18:28:26;;;;;;;;;14.00;12.67;;;;;27.85;49.38;101020.97;5053797;28;45356;-71
2023/06/25 18:30:52;;;;;;;;;12.00;12.00;;;;;27.84;49.18;101028.31;5052411;28;45704;-70
2023/06/25 18:33:18;;;;;;;;;12.67;12.00;;;;;27.86;49.59;101030.84;5053538;28;45436;-71
2023/06/25 18:35:43;;;;;;;;;14.33;13.67;;;;;27.85;49.62;101024.56;5042207;28;45569;-71
2023/06/25 18:38:08;;;;;;;;;12.00;12.00;;;;;27.86;49.31;101028.13;5037395;28;46071;-71
2023/06/25 18:40:34;;;;;;;;;14.00;14.00;;;;;27.86;49.51;101028.13;5048416;28;45542;-72
2023/06/25 18:42:59;;;;;;;;;14.33;14.00;;;;;27.85;49.03;101024.56;5042997;28;45409;-72
2023/06/25 18:45:24;;;;;;;;;13.00;11.33;;;;;27.87;48.85;101032.53;5043743;28;52445;-72
2023/06/25 18:47:51;;;;;;;;;14.00;12.67;;;;;27.86;49.60;101028.13;5053142;28;45471;-71
2023/06/25 18:50:17;;;;;;;;;14.67;14.67;;;;;27.87;49.36;101029.81;5044148;28;45614;-71
2023/06/25 18:52:43;;;;;;;;;12.33;11.67;;;;;27.84;48.91;101025.59;5052533;28;45616;-72
2023/06/25 18:55:09;;;;;;;;;12.33;12.33;;;;;27.87;49.48;101027.06;5047181;28;45715;-72
2023/06/25 18:57:34;;;;;;;;;12.67;11.00;;;;;27.86;48.91;101026.25;5041286;28;46909;-70
2023/06/25 18:59:59;;;;;;;;;12.67;12.33;;;;;27.88;48.81;101031.53;5049632;28;45574;-70
2023/06/25 19:02:25;;;;;;;;;11.33;11.00;;;;;27.87;49.09;101033.38;5050520;28;45587;-70
2023/06/25 19:04:50;;;;;;;;;11.33;10.67;;;;;27.87;49.27;101033.38;5049203;28;45590;-72
2023/06/25 19:07:15;;;;;;;;;12.67;12.67;;;;;27.88;49.01;101032.34;5041021;28;46205;-72
2023/06/25 19:09:41;;;;;;;;;13.00;13.00;;;;;27.89;48.74;101027.75;5052039;28;50783;-70
2023/06/25 19:12:06;;;;;;;;;14.00;12.00;;;;;27.88;49.07;101024.16;5042830;28;45825;-71
2023/06/25 19:14:32;;;;;;;;;11.33;11.33;;;;;27.90;49.25;101023.97;5047407;28;45616;-70
2023/06/25 19:16:57;;;;;;;;;14.67;13.33;;;;;27.91;49.23;101024.84;5046954;28;45376;-70
2023/06/25 19:19:22;;;;;;;;;10.00;10.00;;;;;27.91;49.23;101022.94;5049135;28;45808;-70
2023/06/25 19:21:49;;;;;;;;;11.00;11.00;;;;;27.92;49.14;101026.53;5045264;28;45816;-69
2023/06/25 19:24:14;;;;;;;;;11.33;11.00;;;;;27.92;49.01;101018.34;5040912;28;45554;-71
2023/06/25 19:26:40;;;;;;;;;14.33;12.67;;;;;27.93;49.57;101026.34;5050028;28;46171;-71
2023/06/25 19:29:05;;;;;;;;;13.33;13.33;;;;;27.91;49.65;101022.94;5047374;28;45475;-72
2023/06/25 19:31:30;;;;;;;;;11.00;11.00;;;;;27.93;48.77;101034.53;5052445;28;45452;-72
2023/06/25 19:33:56;;;;;;;;;11.33;11.33;;;;;27.95;48.69;101034.34;5048680;28;53497;-72
2023/06/25 19:36:21;;;;;;;;;12.00;11.33;;;;;27.95;49.35;101034.34;5037901;28;45585;-71
2023/06/25 19:38:49;;;;;;;;;14.00;14.00;;;;;27.92;49.02;101032.84;5047744;28;45746;-72
2023/06/25 19:41:15;;;;;;;;;12.33;12.33;;;;;27.95;49.49;101035.16;5052672;28;45664;-72
2023/06/25 19:43:40;;;;;;;;;13.67;12.67;;;;;27.96;49.04;101044.19;5052684;28;45424;-72
2023/06/25 19:46:06;;;;;;;;;14.00;14.00;;;;;27.95;48.99;101043.34;5052313;28;45504;-72
2023/06/25 19:48:32;;;;;;;;;11.33;11.00;;;;;27.95;49.62;101037.06;5051770;28;45389;-72
2023/06/25 19:50:57;;;;;;;;;10.00;10.00;;;;;27.95;49.33;101046.06;5052755;28;45341;-72
2023/06/25 19:53:22;;;;;;;;;11.33;11.33;;;;;27.96;49.53;101046.94;5051909;28;45639;-72
2023/06/25 19:55:48;;;;;;;;;12.67;10.00;;;;;27.97;49.42;101054.06;5049893;28;47133;-72